Time;durP1;ratioP1;P1;durP2;ratioP2;P2;SDS_P1;SDS_P2;PMS_P1;PMS_P2;Temp;Humidity;BMP_temperature;BMP_pressure;BME280_temperature;BME280_humidity;BME280_pressure;Samples;Min_cycle;Max_cycle;Signal;HPM_P1;HPM_P2
2022/10/20 00:02:01;;;;;;;3.45;0.80;;;;;;;6.23;61.26;100355.48;1778115;79;21041;-47
2022/10/20 00:04:28;;;;;;;2.47;0.60;;;;;;;6.19;61.56;100361.86;1773468;80;21115;-47
2022/10/20 00:06:56;;;;;;;2.20;0.57;;;;;;;6.12;61.56;100363.53;1766913;80;21039;-47
2022/10/20 00:09:23;;;;;;;0.78;0.28;;;;;;;6.09;61.61;100361.58;1765994;80;21121;-47
2022/10/20 00:11:50;;;;;;;3.90;0.80;;;;;;;6.01;61.58;100366.43;1776433;79;21478;-47
2022/10/20 00:14:16;;;;;;;2.05;0.53;;;;;;;6.00;61.54;100362.98;1775470;79;21550;-46
2022/10/20 00:16:43;;;;;;;3.12;0.70;;;;;;;6.06;61.32;100366.98;1774639;80;21039;-46
2022/10/20 00:19:11;;;;;;;1.10;0.40;;;;;;;6.07;61.18;100368.64;1759522;80;21121;-48
2022/10/20 00:21:38;;;;;;;3.70;0.70;;;;;;;6.07;61.56;100366.89;1759961;80;21047;-47
2022/10/20 00:24:04;;;;;;;4.87;0.90;;;;;;;6.05;61.68;100359.63;1757062;80;21096;-47
2022/10/20 00:26:31;;;;;;;1.95;0.53;;;;;;;6.02;62.21;100364.17;1777005;80;21086;-47
2022/10/20 00:29:01;;;;;;;2.33;0.65;;;;;;;6.01;62.26;100372.48;1761403;80;22216;-47
2022/10/20 00:31:28;;;;;;;2.25;0.60;;;;;;;6.07;62.29;100369.95;1768660;80;21066;-47
2022/10/20 00:33:55;;;;;;;3.25;0.50;;;;;;;6.09;62.44;100368.11;1765201;79;21031;-47
2022/10/20 00:36:22;;;;;;;2.60;0.68;;;;;;;6.09;62.75;100370.25;1755161;81;21155;-48
2022/10/20 00:40:31;;;;;;;2.52;0.80;;;;;;;6.00;63.62;100368.21;1794269;79;22686;-48
2022/10/20 00:42:59;;;;;;;2.62;0.90;;;;;;;6.13;63.04;100371.72;1753979;81;21125;-47
2022/10/20 00:45:26;;;;;;;2.87;0.82;;;;;;;6.04;63.69;100374.08;1722138;82;21263;-47
2022/10/20 00:47:59;;;;;;;1.20;0.47;;;;;;;5.99;63.89;100375.66;1721108;82;21577;-48
2022/10/20 00:50:32;;;;;;;3.45;0.80;;;;;;;6.01;63.83;100376.88;1713107;81;21596;-46
2022/10/20 00:52:59;;;;;;;2.50;0.70;;;;;;;5.95;63.85;100378.90;1705083;82;21082;-50
2022/10/20 00:55:29;;;;;;;3.17;1.20;;;;;;;5.90;63.88;100384.88;1720429;82;21065;-47
2022/10/20 00:57:57;;;;;;;1.98;0.50;;;;;;;5.85;63.94;100388.23;1717787;82;21131;-47
2022/10/20 01:00:24;;;;;;;2.33;0.70;;;;;;;5.82;63.83;100387.58;1719014;82;21438;-47
2022/10/20 01:02:51;;;;;;;3.67;0.80;;;;;;;5.83;63.54;100391.84;1721727;82;21556;-47
2022/10/20 01:05:18;;;;;;;3.50;1.10;;;;;;;5.79;63.27;100394.28;1699532;82;21061;-48
2022/10/20 01:07:46;;;;;;;2.90;0.60;;;;;;;5.73;63.32;100391.11;1703718;81;21813;-48
2022/10/20 01:10:13;;;;;;;2.47;0.75;;;;;;;5.69;62.92;100394.81;1699925;82;21210;-48
2022/10/20 01:12:58;;;;;;;3.30;0.62;;;;;;;5.66;63.03;100404.13;1695006;82;21015;-48
2022/10/20 01:15:36;;;;;;;2.52;0.78;;;;;;;5.63;63.19;100386.06;1696198;81;21097;-48
2022/10/20 01:18:43;;;;;;;0.82;0.20;;;;;;;5.66;63.03;100394.99;1717068;81;21043;-48
2022/10/20 01:21:20;;;;;;;2.20;0.85;;;;;;;5.67;62.88;100389.33;1719152;83;21092;-47
2022/10/20 01:24:18;;;;;;;1.45;0.55;;;;;;;5.65;63.11;100397.69;1701623;83;21078;-47
2022/10/20 01:27:19;;;;;;;2.98;0.80;;;;;;;5.62;63.24;100397.42;1671511;84;21109;-48
2022/10/20 01:30:17;;;;;;;1.17;0.20;;;;;;;5.58;63.11;100395.91;1692727;83;21067;-47
2022/10/20 01:32:52;;;;;;;1.52;0.47;;;;;;;5.60;63.18;100391.46;1692597;83;21138;-47
2022/10/20 01:35:37;;;;;;;1.05;0.37;;;;;;;5.66;62.85;100399.38;1707886;83;21074;-46
2022/10/20 01:38:23;;;;;;;2.33;0.35;;;;;;;5.65;62.75;100395.08;1718784;83;21265;-47
2022/10/20 01:40:55;;;;;;;1.42;0.30;;;;;;;5.63;62.90;100401.73;1700057;83;21052;-47
2022/10/20 01:43:23;;;;;;;2.62;0.50;;;;;;;5.63;62.81;100411.30;1696836;83;21480;-47
2022/10/20 01:45:50;;;;;;;2.62;0.80;;;;;;;5.61;62.95;100402.73;1678823;84;21125;-47
2022/10/20 01:48:20;;;;;;;1.37;0.30;;;;;;;5.63;62.92;100403.03;1703164;83;21506;-48
2022/10/20 01:50:47;;;;;;;2.95;0.78;;;;;;;5.67;62.86;100403.69;1663217;85;21827;-49
2022/10/20 01:53:13;;;;;;;3.27;0.85;;;;;;;5.68;62.75;100410.13;1686532;84;21055;-47
2022/10/20 01:55:40;;;;;;;3.02;1.00;;;;;;;5.65;62.93;100416.83;1688457;83;21056;-47
2022/10/20 01:58:29;;;;;;;3.42;0.85;;;;;;;5.63;62.90;100408.25;1704550;83;21122;-48
2022/10/20 02:01:00;;;;;;;0.65;0.20;;;;;;;5.59;62.83;100414.09;1656333;85;21127;-46
2022/10/20 02:03:43;;;;;;;2.58;0.75;;;;;;;5.56;62.81;100419.96;1686579;84;21087;-47
2022/10/20 02:06:49;;;;;;;1.50;0.30;;;;;;;5.56;63.03;100418.22;1678293;85;21106;-47
2022/10/20 02:09:33;;;;;;;0.88;0.25;;;;;;;5.50;62.94;100419.87;1692362;84;21063;-52
2022/10/20 02:12:05;;;;;;;2.22;0.53;;;;;;;5.45;63.03;100419.77;1691012;84;21073;-49
2022/10/20 02:14:33;;;;;;;2.45;0.47;;;;;;;5.40;63.35;100432.61;1701539;83;21139;-48
2022/10/20 02:17:04;;;;;;;1.98;0.60;;;;;;;5.39;63.24;100419.17;1699098;84;21233;-48
2022/10/20 02:19:39;;;;;;;3.12;0.70;;;;;;;5.48;63.14;100419.56;1701562;84;21039;-46
2022/10/20 02:22:07;;;;;;;1.72;0.40;;;;;;;5.54;62.44;100417.91;1685183;83;21056;-45
2022/10/20 02:24:37;;;;;;;3.12;0.60;;;;;;;5.54;62.20;100420.05;1688551;84;21517;-46
2022/10/20 02:27:21;;;;;;;3.65;0.90;;;;;;;5.55;62.32;100430.88;1690471;83;21084;-47
2022/10/20 02:30:01;;;;;;;1.52;0.50;;;;;;;5.53;62.46;100426.22;1698260;84;21850;-51
2022/10/20 02:32:28;;;;;;;2.15;0.70;;;;;;;5.52;62.20;100422.39;1699690;83;21145;-46
2022/10/20 02:34:55;;;;;;;0.80;0.20;;;;;;;5.48;62.17;100430.00;1723627;82;21061;-46
2022/10/20 02:37:22;;;;;;;1.82;0.50;;;;;;;5.50;62.32;100436.00;1713316;83;21087;-46
2022/10/20 02:39:48;;;;;;;4.40;0.70;;;;;;;5.57;62.08;100439.45;1722731;82;21052;-46
2022/10/20 02:42:18;;;;;;;2.58;0.72;;;;;;;5.62;61.99;100440.50;1728666;82;21205;-47
2022/10/20 02:44:46;;;;;;;2.72;0.90;;;;;;;5.65;62.22;100447.30;1722879;82;21061;-49
2022/10/20 02:47:12;;;;;;;0.93;0.30;;;;;;;5.63;62.17;100451.33;1713300;82;21116;-46
2022/10/20 02:49:38;;;;;;;2.05;0.50;;;;;;;5.63;62.14;100452.63;1728257;82;21511;-46
2022/10/20 02:52:05;;;;;;;2.25;0.60;;;;;;;5.62;62.32;100454.02;1689450;83;21122;-49
2022/10/20 02:54:32;;;;;;;2.75;1.00;;;;;;;5.66;62.03;100443.29;1734302;81;21209;-46
2022/10/20 02:56:59;;;;;;;4.12;1.02;;;;;;;5.69;61.83;100447.50;1713147;83;21053;-47
2022/10/20 02:59:26;;;;;;;1.60;0.60;;;;;;;5.67;61.81;100457.20;1728748;82;21119;-47
2022/10/20 03:01:53;;;;;;;1.45;0.57;;;;;;;5.65;62.31;100454.68;1706440;83;21073;-46
2022/10/20 03:04:19;;;;;;;2.27;0.75;;;;;;;5.63;62.55;100459.16;1702326;83;21102;-46
2022/10/20 03:06:46;;;;;;;2.52;0.62;;;;;;;5.58;62.98;100451.59;1715666;82;21202;-47
2022/10/20 03:09:12;;;;;;;2.92;0.90;;;;;;;5.63;62.88;100464.37;1695309;83;21085;-47
2022/10/20 03:11:40;;;;;;;3.45;0.80;;;;;;;5.70;62.57;100458.30;1686553;83;21090;-46
2022/10/20 03:14:06;;;;;;;2.83;0.95;;;;;;;5.72;62.74;100450.77;1702360;83;21501;-47
2022/10/20 03:16:34;;;;;;;2.40;0.70;;;;;;;5.67;62.53;100456.73;1705856;82;21087;-46
2022/10/20 03:19:01;;;;;;;0.80;0.30;;;;;;;5.66;62.65;100455.52;1741178;82;21274;-46
2022/10/20 03:21:29;;;;;;;3.15;0.82;;;;;;;5.64;62.79;100449.08;1735880;82;21051;-46
2022/10/20 03:23:56;;;;;;;2.30;0.90;;;;;;;5.60;62.74;100463.25;1703243;82;21711;-46
2022/10/20 03:26:23;;;;;;;1.20;0.40;;;;;;;5.62;62.64;100458.77;1680459;82;21523;-46
2022/10/20 03:28:49;;;;;;;5.20;0.88;;;;;;;5.68;63.04;100459.73;1720430;82;21636;-46
2022/10/20 03:31:16;;;;;;;2.98;1.10;;;;;;;5.70;62.77;100457.86;1682873;83;21231;-46
2022/10/20 03:33:43;;;;;;;1.75;0.47;;;;;;;5.68;62.77;100453.20;1706076;83;21090;-46
2022/10/20 03:36:10;;;;;;;2.77;0.95;;;;;;;5.67;62.95;100465.87;1683838;83;21091;-47
2022/10/20 03:38:38;;;;;;;4.22;0.95;;;;;;;5.63;62.81;100465.69;1717063;82;21114;-47
2022/10/20 03:41:05;;;;;;;2.65;0.82;;;;;;;5.59;63.00;100466.30;1665344;83;21557;-47
2022/10/20 03:43:33;;;;;;;1.90;0.40;;;;;;;5.61;62.65;100469.30;1703350;82;21131;-46
2022/10/20 03:46:04;;;;;;;2.75;0.88;;;;;;;5.63;62.60;100464.37;1716799;82;21105;-47
2022/10/20 03:48:31;;;;;;;3.10;0.93;;;;;;;5.61;62.64;100469.30;1719046;82;21030;-47
2022/10/20 03:50:59;;;;;;;3.40;1.15;;;;;;;5.56;62.39;100463.89;1706012;82;21524;-51
2022/10/20 03:53:28;;;;;;;3.47;0.70;;;;;;;5.53;62.34;100464.51;1710790;82;21062;-47
2022/10/20 03:55:55;;;;;;;3.65;0.98;;;;;;;5.49;62.44;100464.33;1691737;82;21144;-47
2022/10/20 03:58:21;;;;;;;2.95;1.00;;;;;;;5.52;62.65;100471.98;1707291;82;21573;-47
2022/10/20 04:00:48;;;;;;;2.95;1.02;;;;;;;5.61;62.73;100471.91;1701673;82;21030;-47
2022/10/20 04:03:15;;;;;;;3.40;1.12;;;;;;;5.61;62.42;100470.13;1715712;82;21066;-47
2022/10/20 04:05:41;;;;;;;3.10;1.02;;;;;;;5.62;62.46;100473.60;1708177;82;21062;-51
2022/10/20 04:08:10;;;;;;;3.70;1.22;;;;;;;5.61;62.52;100474.05;1717063;82;21073;-47
2022/10/20 04:10:36;;;;;;;2.22;0.85;;;;;;;5.59;62.78;100469.38;1694680;82;21061;-46
2022/10/20 04:13:04;;;;;;;3.55;1.00;;;;;;;5.58;62.88;100471.61;1691046;83;21108;-47
2022/10/20 04:15:31;;;;;;;3.80;1.20;;;;;;;5.60;62.75;100471.08;1709187;82;21030;-48
2022/10/20 04:17:58;;;;;;;3.95;1.20;;;;;;;5.64;62.62;100476.48;1693695;82;21014;-47
2022/10/20 04:20:25;;;;;;;1.60;0.50;;;;;;;5.61;62.42;100481.88;1710630;82;21290;-47
2022/10/20 04:22:53;;;;;;;2.67;1.00;;;;;;;5.58;62.70;100482.05;1720264;82;21075;-47
2022/10/20 04:25:19;;;;;;;3.45;1.17;;;;;;;5.56;63.08;100485.22;1708173;82;21003;-46
2022/10/20 04:27:47;;;;;;;5.53;1.22;;;;;;;5.52;63.28;100495.47;1707410;82;21074;-46
2022/10/20 04:30:14;;;;;;;3.67;1.20;;;;;;;5.47;63.83;100486.59;1710170;82;21058;-47
2022/10/20 04:32:42;;;;;;;3.98;0.90;;;;;;;5.53;63.94;100497.13;1713289;82;21046;-47
2022/10/20 04:35:09;;;;;;;3.05;1.30;;;;;;;5.53;64.11;100491.91;1701409;82;21061;-47
2022/10/20 04:37:36;;;;;;;3.15;0.78;;;;;;;5.49;63.91;100493.86;1691590;82;22390;-47
2022/10/20 04:40:05;;;;;;;3.83;1.20;;;;;;;5.45;64.37;100500.20;1703753;82;21070;-47
2022/10/20 04:42:32;;;;;;;3.62;1.10;;;;;;;5.37;64.35;100501.92;1744363;81;21106;-45
2022/10/20 04:44:58;;;;;;;2.17;0.55;;;;;;;5.33;64.69;100492.60;1737411;81;21193;-47
2022/10/20 04:47:25;;;;;;;3.83;1.20;;;;;;;5.37;65.00;100506.31;1720532;83;21067;-49
2022/10/20 04:49:51;;;;;;;3.95;1.30;;;;;;;5.35;64.88;100508.17;1732956;81;21059;-46
2022/10/20 04:52:19;;;;;;;6.03;1.35;;;;;;;5.35;65.22;100506.40;1697196;83;21078;-46
2022/10/20 04:54:46;;;;;;;2.77;0.60;;;;;;;5.35;65.48;100512.92;1695254;82;21062;-46
2022/10/20 04:57:12;;;;;;;3.40;1.20;;;;;;;5.33;65.62;100511.31;1722961;81;22113;-46
2022/10/20 04:59:39;;;;;;;2.72;0.60;;;;;;;5.33;65.24;100516.53;1731164;80;21050;-46
2022/10/20 05:02:05;;;;;;;5.28;1.50;;;;;;;5.35;65.23;100518.14;1731628;82;21086;-49
2022/10/20 05:04:32;;;;;;;7.40;1.15;;;;;;;5.31;65.09;100520.55;1732072;81;21074;-45
2022/10/20 05:06:58;;;;;;;6.17;1.60;;;;;;;5.30;65.06;100516.25;1698525;82;21078;-48
2022/10/20 05:09:25;;;;;;;4.47;1.20;;;;;;;5.27;65.14;100532.08;1729043;82;21962;-48
2022/10/20 05:11:52;;;;;;;1.02;0.30;;;;;;;5.26;65.50;100525.63;1744203;82;21031;-48
2022/10/20 05:14:19;;;;;;;3.50;1.10;;;;;;;5.31;65.15;100524.47;1746343;82;21110;-48
2022/10/20 05:16:46;;;;;;;3.27;0.42;;;;;;;5.32;64.79;100527.44;1732805;82;21007;-45
2022/10/20 05:19:14;;;;;;;2.55;0.95;;;;;;;5.33;64.80;100530.44;1725047;82;21063;-46
2022/10/20 05:21:42;;;;;;;4.00;1.07;;;;;;;5.31;64.32;100528.39;1750387;81;21203;-49
2022/10/20 05:24:13;;;;;;;2.45;0.95;;;;;;;5.28;64.78;100527.25;1725335;81;21054;-47
2022/10/20 05:26:39;;;;;;;1.17;0.20;;;;;;;5.28;64.64;100532.46;1745331;82;22285;-46
2022/10/20 05:29:08;;;;;;;2.83;0.85;;;;;;;5.34;64.64;100524.27;1713817;82;21519;-47
2022/10/20 05:31:42;;;;;;;2.75;0.40;;;;;;;5.38;64.56;100535.41;1692822;82;21069;-46
2022/10/20 05:34:09;;;;;;;3.72;1.10;;;;;;;5.42;64.86;100547.81;1737777;81;21144;-47
2022/10/20 05:36:37;;;;;;;1.80;0.42;;;;;;;5.39;64.66;100537.07;1695382;82;21034;-46
2022/10/20 05:39:03;;;;;;;3.33;0.72;;;;;;;5.36;65.22;100543.31;1723802;82;21005;-47
2022/10/20 05:41:32;;;;;;;2.30;0.98;;;;;;;5.37;65.36;100547.59;1687185;82;21074;-48
2022/10/20 05:44:01;;;;;;;4.05;1.22;;;;;;;5.39;65.82;100544.90;1713151;82;21085;-47
2022/10/20 05:46:30;;;;;;;0.93;0.30;;;;;;;5.37;65.90;100549.37;1745433;82;21139;-48
2022/10/20 05:48:59;;;;;;;4.17;0.72;;;;;;;5.34;65.91;100552.97;1746502;82;21593;-47
2022/10/20 05:51:29;;;;;;;2.72;0.80;;;;;;;5.32;66.15;100557.45;1700776;82;21015;-47
2022/10/20 05:53:57;;;;;;;2.37;0.78;;;;;;;5.36;66.15;100551.59;1728663;82;21063;-47
2022/10/20 05:56:24;;;;;;;4.87;1.02;;;;;;;5.38;66.16;100564.95;1700263;82;21065;-47
2022/10/20 05:58:51;;;;;;;3.72;1.20;;;;;;;5.38;66.51;100566.25;1737107;82;21751;-47
2022/10/20 06:01:24;;;;;;;1.95;0.65;;;;;;;5.39;66.48;100572.30;1731578;82;21353;-47
2022/10/20 06:03:54;;;;;;;3.83;0.85;;;;;;;5.36;66.69;100576.37;1720989;82;21045;-47
2022/10/20 06:06:28;;;;;;;2.50;0.93;;;;;;;5.35;66.57;100576.02;1739970;82;21054;-47
2022/10/20 06:08:58;;;;;;;2.95;0.75;;;;;;;5.36;66.64;100570.72;1750868;82;21109;-46
2022/10/20 06:11:26;;;;;;;3.95;1.20;;;;;;;5.33;66.81;100576.55;1749753;82;21043;-46
2022/10/20 06:13:53;;;;;;;4.67;1.00;;;;;;;5.33;67.22;100578.71;1747108;82;21046;-47
2022/10/20 06:16:24;;;;;;;3.67;0.90;;;;;;;5.37;67.34;100576.77;1637415;83;21584;-47
2022/10/20 06:18:52;;;;;;;2.98;0.70;;;;;;;5.42;67.00;100579.13;1713797;82;21494;-47
2022/10/20 06:21:22;;;;;;;3.70;1.10;;;;;;;5.39;67.10;100579.66;1738963;82;21016;-46
2022/10/20 06:23:49;;;;;;;4.45;1.37;;;;;;;5.39;66.84;100585.34;1734096;82;21864;-46
2022/10/20 06:26:19;;;;;;;3.00;1.00;;;;;;;5.34;67.24;100575.63;1733402;82;21075;-47
2022/10/20 06:28:49;;;;;;;4.90;1.17;;;;;;;5.31;67.34;100587.09;1721045;83;21075;-47
2022/10/20 06:31:22;;;;;;;1.20;0.30;;;;;;;5.34;67.30;100584.77;1732439;82;22356;-47
2022/10/20 06:33:51;;;;;;;3.45;1.20;;;;;;;5.35;67.67;100587.29;1685891;84;21066;-47
2022/10/20 06:36:18;;;;;;;3.75;1.17;;;;;;;5.34;67.66;100588.20;1731738;82;21133;-48
2022/10/20 06:38:45;;;;;;;1.98;0.53;;;;;;;5.33;67.62;100598.28;1732491;81;21071;-46
2022/10/20 06:41:16;;;;;;;4.58;1.20;;;;;;;5.35;67.89;100601.64;1748811;81;21427;-46
2022/10/20 06:43:43;;;;;;;4.00;0.60;;;;;;;5.43;68.12;100606.89;1714457;83;21583;-46
2022/10/20 06:46:12;;;;;;;2.27;0.57;;;;;;;5.46;68.10;100603.64;1702188;82;21045;-47
2022/10/20 06:48:39;;;;;;;3.12;1.30;;;;;;;5.47;67.76;100601.91;1740443;82;21114;-47
2022/10/20 06:51:13;;;;;;;3.90;1.30;;;;;;;5.46;67.60;100602.81;1740911;82;21619;-46
2022/10/20 06:53:42;;;;;;;3.22;0.98;;;;;;;5.44;67.34;100600.29;1750628;82;21043;-46
2022/10/20 06:56:18;;;;;;;3.58;1.10;;;;;;;5.43;67.59;100603.84;1740583;82;21008;-47
2022/10/20 06:58:46;;;;;;;2.27;0.60;;;;;;;5.49;67.60;100613.09;1708682;82;21118;-46
2022/10/20 07:01:18;;;;;;;3.62;1.20;;;;;;;5.48;67.47;100605.73;1749113;82;21171;-47
2022/10/20 07:03:46;;;;;;;5.17;1.30;;;;;;;5.47;67.50;100609.73;1747084;82;21055;-46
2022/10/20 07:06:18;;;;;;;3.80;1.02;;;;;;;5.48;67.37;100616.17;1746445;82;21610;-47
2022/10/20 07:08:45;;;;;;;2.40;0.93;;;;;;;5.48;67.57;100617.92;1747018;82;21115;-46
2022/10/20 07:11:18;;;;;;;3.45;1.45;;;;;;;5.49;67.45;100620.45;1743155;82;21044;-46
2022/10/20 07:13:51;;;;;;;3.52;1.20;;;;;;;5.53;67.53;100621.98;1748104;82;21075;-47
2022/10/20 07:16:20;;;;;;;1.92;0.60;;;;;;;5.56;67.79;100624.87;1741926;82;21079;-46
2022/10/20 07:18:47;;;;;;;4.30;1.37;;;;;;;5.54;67.89;100628.03;1747467;80;21086;-47
2022/10/20 07:21:20;;;;;;;4.00;1.30;;;;;;;5.49;67.54;100626.14;1708091;82;21106;-46
2022/10/20 07:23:48;;;;;;;3.75;1.20;;;;;;;5.48;67.37;100624.45;1747300;82;21011;-49
2022/10/20 07:26:25;;;;;;;3.22;1.05;;;;;;;5.50;67.19;100624.75;1748469;82;21236;-46
2022/10/20 07:28:56;;;;;;;3.72;1.00;;;;;;;5.44;67.54;100621.17;1747212;80;21051;-48
2022/10/20 07:31:29;;;;;;;4.35;1.55;;;;;;;5.42;67.93;100624.33;1739795;81;21094;-46
2022/10/20 07:34:03;;;;;;;1.55;0.53;;;;;;;5.42;68.05;100628.72;1714427;83;21046;-47
2022/10/20 07:36:30;;;;;;;4.25;1.77;;;;;;;5.50;67.73;100626.53;1706531;82;21105;-46
2022/10/20 07:38:59;;;;;;;4.10;1.45;;;;;;;5.53;67.08;100631.55;1736405;82;21247;-46
2022/10/20 07:41:26;;;;;;;4.50;0.80;;;;;;;5.54;67.61;100630.17;1745801;82;21031;-46
2022/10/20 07:43:54;;;;;;;4.33;1.45;;;;;;;5.55;67.67;100633.64;1693052;82;21054;-46
2022/10/20 07:46:21;;;;;;;5.22;1.77;;;;;;;5.61;67.61;100640.28;1709994;82;21101;-46
2022/10/20 07:48:48;;;;;;;3.67;0.88;;;;;;;5.68;67.64;100645.09;1708900;83;21070;-47
2022/10/20 07:51:27;;;;;;;4.40;1.50;;;;;;;5.70;67.96;100644.55;1707798;82;21895;-46
2022/10/20 07:54:00;;;;;;;3.72;0.98;;;;;;;5.65;68.32;100639.17;1704855;83;21015;-46
2022/10/20 07:56:30;;;;;;;3.40;1.40;;;;;;;5.60;68.52;100651.20;1692153;83;21065;-46
2022/10/20 07:58:56;;;;;;;3.30;1.10;;;;;;;5.59;69.29;100654.73;1687054;83;21079;-46
2022/10/20 08:01:23;;;;;;;2.70;0.75;;;;;;;5.62;69.64;100657.17;1699422;83;21042;-47
2022/10/20 08:03:50;;;;;;;6.37;2.12;;;;;;;5.61;69.37;100661.17;1700856;82;21220;-47
2022/10/20 08:06:16;;;;;;;4.28;0.70;;;;;;;5.56;69.91;100657.05;1703231;83;21098;-47
2022/10/20 08:08:43;;;;;;;2.72;0.70;;;;;;;5.55;69.77;100650.14;1710251;83;21075;-47
2022/10/20 08:11:11;;;;;;;3.90;1.60;;;;;;;5.58;69.97;100656.94;1694048;83;21508;-48
2022/10/20 08:13:39;;;;;;;4.40;2.08;;;;;;;5.58;70.04;100659.55;1692500;83;21073;-46
2022/10/20 08:16:08;;;;;;;4.30;1.70;;;;;;;5.56;70.26;100651.84;1699001;82;21246;-47
2022/10/20 08:18:35;;;;;;;4.95;1.75;;;;;;;5.59;70.42;100654.73;1701759;83;21035;-46
2022/10/20 08:21:09;;;;;;;4.10;1.70;;;;;;;5.64;70.31;100657.92;1694995;83;21052;-47
2022/10/20 08:23:40;;;;;;;3.95;1.80;;;;;;;5.66;70.53;100659.15;1683617;83;21072;-47
2022/10/20 08:26:06;;;;;;;4.45;2.00;;;;;;;5.67;70.78;100658.23;1697836;83;21577;-47
2022/10/20 08:28:33;;;;;;;4.80;1.15;;;;;;;5.64;70.54;100664.45;1698347;83;21194;-51
2022/10/20 08:31:05;;;;;;;4.72;1.95;;;;;;;5.66;70.52;100670.42;1701132;83;21073;-47
2022/10/20 08:33:33;;;;;;;4.33;2.10;;;;;;;5.68;70.64;100671.20;1684339;83;21120;-46
2022/10/20 08:36:05;;;;;;;3.33;1.10;;;;;;;5.65;70.88;100672.67;1705731;83;21562;-46
2022/10/20 08:38:31;;;;;;;4.25;2.10;;;;;;;5.62;70.85;100671.53;1688919;83;21501;-47
2022/10/20 08:40:59;;;;;;;4.28;1.72;;;;;;;5.65;70.32;100666.59;1704829;83;21141;-47
2022/10/20 08:43:26;;;;;;;6.12;2.20;;;;;;;5.67;70.55;100679.12;1699616;83;21117;-46
2022/10/20 08:45:53;;;;;;;4.42;1.50;;;;;;;5.67;70.59;100687.78;1704324;83;21058;-46
2022/10/20 08:48:23;;;;;;;3.75;1.72;;;;;;;5.67;70.42;100677.81;1706934;82;21691;-49
2022/10/20 08:50:52;;;;;;;4.15;1.90;;;;;;;5.71;70.70;100689.29;1701656;82;21572;-47
2022/10/20 08:53:22;;;;;;;4.60;1.90;;;;;;;5.81;70.23;100682.27;1704840;83;21398;-46
2022/10/20 08:55:49;;;;;;;4.67;1.90;;;;;;;5.86;70.23;100688.08;1706427;82;21054;-46
2022/10/20 08:58:19;;;;;;;4.15;1.60;;;;;;;5.86;69.69;100681.08;1749690;82;21040;-47
2022/10/20 09:00:46;;;;;;;1.98;0.70;;;;;;;5.88;69.25;100697.49;1747067;80;21117;-47
2022/10/20 09:03:23;;;;;;;5.40;1.95;;;;;;;5.95;69.03;100686.24;1745341;81;21066;-46
2022/10/20 09:06:10;;;;;;;3.98;1.87;;;;;;;5.99;68.98;100694.34;1748051;81;21916;-46
2022/10/20 09:08:38;;;;;;;4.22;1.60;;;;;;;6.01;68.63;100693.78;1745247;82;20992;-46
2022/10/20 09:11:07;;;;;;;4.33;0.98;;;;;;;5.99;68.44;100694.81;1743706;81;22191;-46
2022/10/20 09:13:35;;;;;;;6.55;1.75;;;;;;;5.98;68.25;100688.72;1710796;83;21074;-47
2022/10/20 09:16:13;;;;;;;3.62;1.67;;;;;;;6.02;68.56;100698.53;1702650;83;21186;-46
2022/10/20 09:18:39;;;;;;;4.67;2.20;;;;;;;6.03;68.56;100701.06;1700994;83;21155;-47
2022/10/20 09:21:20;;;;;;;4.25;1.72;;;;;;;6.03;68.65;100689.78;1701308;83;21117;-46
2022/10/20 09:23:52;;;;;;;4.75;1.85;;;;;;;6.07;68.50;100702.59;1704985;83;21101;-47
2022/10/20 09:26:24;;;;;;;2.62;0.80;;;;;;;6.13;68.24;100702.22;1704857;83;21076;-46
2022/10/20 09:28:51;;;;;;;4.37;1.98;;;;;;;6.14;68.43;100705.70;1697868;83;21074;-47
2022/10/20 09:31:34;;;;;;;3.40;1.62;;;;;;;6.11;68.32;100704.09;1619624;84;21235;-47
2022/10/20 09:34:01;;;;;;;5.67;2.17;;;;;;;6.10;68.17;100708.95;1703925;83;21091;-46
2022/10/20 09:36:30;;;;;;;5.78;2.10;;;;;;;6.15;68.09;100715.20;1706338;83;21536;-46
2022/10/20 09:38:58;;;;;;;4.20;1.95;;;;;;;6.14;68.35;100709.14;1697339;83;21078;-51
2022/10/20 09:41:31;;;;;;;3.50;1.15;;;;;;;6.17;68.42;100715.12;1706645;83;21071;-47
2022/10/20 09:44:01;;;;;;;4.53;2.08;;;;;;;6.18;68.48;100721.57;1674738;84;21527;-47
2022/10/20 09:46:40;;;;;;;4.87;2.30;;;;;;;6.26;68.16;100718.53;1702490;84;21081;-46
2022/10/20 09:49:07;;;;;;;5.87;2.40;;;;;;;6.27;67.78;100728.91;1705052;84;21142;-48
2022/10/20 09:51:35;;;;;;;5.03;2.00;;;;;;;6.30;67.93;100730.05;1701562;84;21505;-47
2022/10/20 09:54:07;;;;;;;7.22;1.98;;;;;;;6.30;68.08;100729.18;1703109;84;21050;-47
2022/10/20 09:56:39;;;;;;;4.78;2.20;;;;;;;6.45;67.72;100739.23;1705301;83;21273;-46
2022/10/20 09:59:20;;;;;;;6.28;2.33;;;;;;;6.48;67.20;100741.20;1682199;85;21075;-46
2022/10/20 10:02:03;;;;;;;5.22;2.35;;;;;;;6.40;66.98;100746.02;1704438;82;21345;-47
2022/10/20 10:04:36;;;;;;;5.42;2.27;;;;;;;6.36;67.29;100743.22;1754760;81;21105;-47
2022/10/20 10:07:07;;;;;;;5.67;2.55;;;;;;;6.39;67.27;100748.28;1748020;82;21064;-47
2022/10/20 10:09:36;;;;;;;6.60;2.50;;;;;;;6.42;67.45;100746.80;1706863;83;21055;-48
2022/10/20 10:12:11;;;;;;;6.05;2.42;;;;;;;6.39;67.14;100751.33;1700184;82;21137;-47
2022/10/20 10:14:54;;;;;;;5.05;0.98;;;;;;;6.38;67.16;100751.81;1705064;83;21062;-47
2022/10/20 10:17:39;;;;;;;6.17;1.30;;;;;;;6.40;67.26;100753.86;1701811;83;21151;-46
2022/10/20 10:20:15;;;;;;;4.58;1.67;;;;;;;6.43;67.00;100741.94;1700965;83;21162;-46
2022/10/20 10:22:42;;;;;;;4.33;1.98;;;;;;;6.41;67.32;100752.95;1701792;83;21131;-46
2022/10/20 10:25:25;;;;;;;4.87;2.22;;;;;;;6.38;67.10;100753.59;1706859;83;21078;-47
2022/10/20 10:28:05;;;;;;;5.53;2.37;;;;;;;6.38;67.59;100742.66;1704385;83;21061;-47
2022/10/20 10:30:34;;;;;;;4.67;2.17;;;;;;;6.47;67.38;100747.38;1705848;83;21154;-47
2022/10/20 10:33:00;;;;;;;4.80;2.22;;;;;;;6.49;67.30;100753.83;1703397;83;21065;-47
2022/10/20 10:35:36;;;;;;;5.95;2.30;;;;;;;6.45;67.48;100746.60;1703550;84;21210;-46
2022/10/20 10:38:04;;;;;;;3.42;0.98;;;;;;;6.44;67.08;100746.24;1707304;83;21117;-46
2022/10/20 10:41:08;;;;;;;4.80;2.05;;;;;;;6.53;67.46;100758.42;1707068;83;21115;-46
2022/10/20 10:43:58;;;;;;;5.37;2.30;;;;;;;6.57;67.21;100761.22;1749598;82;21085;-47
2022/10/20 10:46:49;;;;;;;5.83;2.50;;;;;;;6.56;67.24;100759.08;1742905;81;21066;-46
2022/10/20 10:49:42;;;;;;;5.20;2.10;;;;;;;6.61;66.94;100766.19;1708642;82;21207;-46
2022/10/20 10:52:32;;;;;;;4.95;2.30;;;;;;;6.72;67.00;100762.11;1708675;82;21074;-48
2022/10/20 10:55:25;;;;;;;4.67;2.00;;;;;;;6.82;66.53;100769.80;1744424;82;21087;-47
2022/10/20 10:58:26;;;;;;;5.22;2.47;;;;;;;6.86;66.42;100760.86;1739703;82;21111;-48
2022/10/20 11:01:35;;;;;;;4.60;2.12;;;;;;;6.90;65.60;100740.11;1740306;82;21102;-47
2022/10/20 11:04:42;;;;;;;2.83;0.93;;;;;;;6.93;65.47;100768.72;1744690;81;22168;-47
2022/10/20 11:07:38;;;;;;;3.75;1.00;;;;;;;7.01;65.11;100769.55;1706217;82;21698;-47
2022/10/20 11:10:23;;;;;;;2.30;0.82;;;;;;;7.09;65.01;100766.02;1729788;82;21004;-46
2022/10/20 11:13:25;;;;;;;8.18;1.72;;;;;;;7.19;64.69;100757.99;1738602;82;21138;-47
2022/10/20 11:16:17;;;;;;;4.62;1.82;;;;;;;7.29;64.72;100764.84;1732674;82;21636;-49
2022/10/20 11:19:10;;;;;;;4.20;1.90;;;;;;;7.27;64.51;100771.11;1721556;82;21037;-46
2022/10/20 11:22:18;;;;;;;3.05;1.10;;;;;;;7.28;64.46;100783.25;1735466;80;21027;-46
2022/10/20 11:24:50;;;;;;;4.67;2.12;;;;;;;7.22;65.73;100774.00;1723853;81;21024;-47
2022/10/20 11:27:25;;;;;;;5.20;1.90;;;;;;;7.19;65.99;100781.55;1737431;81;21530;-46
2022/10/20 11:30:03;;;;;;;2.62;1.07;;;;;;;7.13;66.09;100777.14;1741649;81;21127;-46
2022/10/20 11:32:54;;;;;;;3.85;1.70;;;;;;;7.17;66.49;100779.50;1738149;81;21066;-46
2022/10/20 11:35:44;;;;;;;3.87;1.57;;;;;;;7.19;66.30;100781.55;1746649;82;21023;-46
2022/10/20 11:38:24;;;;;;;5.62;1.90;;;;;;;7.12;66.57;100782.86;1744433;81;21094;-45
2022/10/20 11:41:04;;;;;;;5.30;1.95;;;;;;;7.10;67.23;100791.27;1744401;80;21122;-46
2022/10/20 11:44:05;;;;;;;4.12;1.60;;;;;;;7.18;67.31;100784.28;1749609;81;21043;-45
2022/10/20 11:47:01;;;;;;;5.70;2.00;;;;;;;7.23;67.54;100794.02;1740957;81;21242;-45
2022/10/20 11:49:28;;;;;;;5.22;1.90;;;;;;;7.24;67.66;100799.13;1738007;81;20969;-46
2022/10/20 11:52:09;;;;;;;3.92;1.57;;;;;;;7.23;67.96;100794.02;1700050;82;21120;-46
2022/10/20 11:54:53;;;;;;;4.95;1.67;;;;;;;7.29;68.00;100798.03;1686251;84;21560;-47
2022/10/20 11:57:37;;;;;;;6.20;2.12;;;;;;;7.30;67.82;100799.25;1704811;83;21110;-47
2022/10/20 12:00:35;;;;;;;4.42;1.98;;;;;;;7.25;68.17;100807.38;1739865;81;21456;-47